createdAt,value
2022-12-11T00:00:27.678Z,-0.60
2022-12-11T00:02:54.891Z,-0.60
2022-12-11T00:05:21.732Z,-0.60
2022-12-11T00:07:48.594Z,-0.50
2022-12-11T00:10:15.511Z,-0.60
2022-12-11T00:12:42.264Z,-0.60
2022-12-11T00:15:09.845Z,-0.60
2022-12-11T00:17:37.141Z,-0.60
2022-12-11T00:20:05.068Z,-0.60
2022-12-11T00:22:31.890Z,-0.60
2022-12-11T00:24:58.706Z,-0.60
2022-12-11T00:27:25.999Z,-0.50
2022-12-11T00:29:52.839Z,-0.50
2022-12-11T00:32:19.724Z,-0.50
2022-12-11T00:34:46.547Z,-0.50
2022-12-11T00:37:13.426Z,-0.50
2022-12-11T00:39:40.262Z,-0.60
2022-12-11T00:42:07.919Z,-0.60
2022-12-11T00:44:35.262Z,-0.50
2022-12-11T00:47:02.303Z,-0.50
2022-12-11T00:49:29.339Z,-0.50
2022-12-11T00:51:56.141Z,-0.50
2022-12-11T00:54:23.256Z,-0.50
2022-12-11T00:56:50.759Z,-0.50
2022-12-11T00:59:17.567Z,-0.50
2022-12-11T01:01:44.518Z,-0.50
2022-12-11T01:04:11.372Z,-0.40
2022-12-11T01:06:39.767Z,-0.40
2022-12-11T01:09:25.018Z,-0.40
2022-12-11T01:11:52.611Z,-0.40
2022-12-11T01:14:19.825Z,-0.40
2022-12-11T01:16:46.713Z,-0.50
2022-12-11T01:19:13.763Z,-0.40
2022-12-11T01:21:41.179Z,-0.40
2022-12-11T01:24:08.134Z,-0.40
2022-12-11T01:26:35.019Z,-0.40
2022-12-11T01:29:01.938Z,-0.40
2022-12-11T01:31:28.778Z,-0.40
2022-12-11T01:33:56.213Z,-0.40
2022-12-11T01:36:24.027Z,-0.40
2022-12-11T01:38:50.947Z,-0.30
2022-12-11T01:41:18.833Z,-0.30
2022-12-11T01:44:04.603Z,-0.30
2022-12-11T01:46:33.982Z,-0.30
2022-12-11T01:49:04.693Z,-0.30
2022-12-11T01:51:34.896Z,-0.30
2022-12-11T01:54:07.974Z,-0.30
2022-12-11T01:56:36.408Z,-0.30
2022-12-11T01:59:07.086Z,-0.30
2022-12-11T02:01:40.380Z,-0.20
2022-12-11T02:04:09.131Z,-0.20
2022-12-11T02:06:41.971Z,-0.20
2022-12-11T02:09:13.820Z,-0.20
2022-12-11T02:11:45.733Z,-0.20
2022-12-11T02:14:22.498Z,-0.20
2022-12-11T02:17:01.547Z,-0.20
2022-12-11T02:19:56.283Z,-0.20
2022-12-11T02:22:38.294Z,-0.20
2022-12-11T02:25:30.528Z,-0.20
2022-12-11T02:28:21.962Z,-0.20
2022-12-11T02:30:57.118Z,-0.10
2022-12-11T02:33:39.170Z,-0.10
2022-12-11T02:36:08.153Z,-0.20
2022-12-11T02:38:39.458Z,-0.10
2022-12-11T02:41:08.311Z,-0.10
2022-12-11T02:43:38.078Z,-0.10
2022-12-11T02:46:07.651Z,-0.10
2022-12-11T02:48:36.204Z,-0.10
2022-12-11T02:51:06.226Z,-0.10
2022-12-11T02:53:35.756Z,-0.10
2022-12-11T02:56:12.605Z,-0.10
2022-12-11T02:58:47.114Z,-0.10
2022-12-11T03:01:14.089Z,-0.10
2022-12-11T03:03:40.998Z,-0.10
2022-12-11T03:06:11.067Z,-0.10
2022-12-11T03:08:38.077Z,-0.10
2022-12-11T03:11:05.009Z,-0.10
2022-12-11T03:13:32.918Z,-0.10
2022-12-11T03:16:02.810Z,-0.10
2022-12-11T03:18:51.239Z,-0.10
2022-12-11T03:21:25.814Z,-0.10
2022-12-11T03:24:01.013Z,0.00
2022-12-11T03:26:29.764Z,-0.10
2022-12-11T03:29:19.338Z,0.00
2022-12-11T03:31:54.602Z,0.00
2022-12-11T03:34:29.041Z,0.00
2022-12-11T03:36:57.918Z,0.00
2022-12-11T03:39:35.951Z,0.00
2022-12-11T03:42:07.355Z,0.00
2022-12-11T03:44:36.013Z,0.00
2022-12-11T03:47:06.918Z,0.00
2022-12-11T03:49:42.854Z,0.00
2022-12-11T03:52:11.761Z,0.00
2022-12-11T03:54:40.726Z,0.00
2022-12-11T03:57:09.491Z,0.00
2022-12-11T03:59:36.334Z,0.00
2022-12-11T04:02:10.755Z,0.00
2022-12-11T04:04:39.231Z,0.10
2022-12-11T04:07:06.158Z,0.10
2022-12-11T04:09:33.773Z,0.00
2022-12-11T04:12:00.715Z,0.10
2022-12-11T04:14:46.121Z,0.10
2022-12-11T04:17:33.027Z,0.00
2022-12-11T04:20:18.360Z,0.10
2022-12-11T04:23:03.835Z,0.10
2022-12-11T04:25:30.706Z,0.10
2022-12-11T04:27:57.464Z,0.10
2022-12-11T04:30:30.753Z,0.10
2022-12-11T04:33:00.799Z,0.10
2022-12-11T04:35:27.869Z,0.10
2022-12-11T04:37:54.871Z,0.10
2022-12-11T04:40:21.830Z,0.10
2022-12-11T04:42:48.816Z,0.10
2022-12-11T04:45:15.651Z,0.10
2022-12-11T04:47:42.581Z,0.10
2022-12-11T04:50:11.931Z,0.10
2022-12-11T04:52:38.884Z,0.10
2022-12-11T04:55:07.884Z,0.10
2022-12-11T04:57:35.394Z,0.10
2022-12-11T05:00:04.832Z,0.10
2022-12-11T05:02:34.895Z,0.10
2022-12-11T05:05:03.282Z,0.00
2022-12-11T05:07:30.122Z,0.10
2022-12-11T05:09:56.915Z,0.10
2022-12-11T05:12:23.675Z,0.10
2022-12-11T05:14:54.435Z,0.10
2022-12-11T05:17:22.260Z,0.10
2022-12-11T05:19:50.893Z,0.10
2022-12-11T05:22:18.975Z,0.10
2022-12-11T05:24:45.869Z,0.10
2022-12-11T05:27:12.979Z,0.10
2022-12-11T05:29:39.943Z,0.10
2022-12-11T05:32:06.791Z,0.10
2022-12-11T05:34:33.611Z,0.10
2022-12-11T05:37:01.473Z,0.10
2022-12-11T05:39:28.304Z,0.10
2022-12-11T05:41:55.086Z,0.10
2022-12-11T05:44:21.900Z,0.10
2022-12-11T05:46:49.734Z,0.10
2022-12-11T05:49:19.889Z,0.10
2022-12-11T05:51:47.490Z,0.10
2022-12-11T05:54:14.610Z,0.10
2022-12-11T05:56:41.377Z,0.10
2022-12-11T05:59:08.477Z,0.10
2022-12-11T06:01:43.454Z,0.10
2022-12-11T06:04:12.076Z,0.10
2022-12-11T06:06:40.393Z,0.10
2022-12-11T06:09:07.903Z,0.10
2022-12-11T06:11:35.792Z,0.10
2022-12-11T06:14:03.623Z,0.10
2022-12-11T06:16:30.855Z,0.10
2022-12-11T06:18:58.729Z,0.10
2022-12-11T06:21:28.843Z,0.20
2022-12-11T06:23:57.482Z,0.20
2022-12-11T06:26:24.992Z,0.20
2022-12-11T06:28:51.779Z,0.20
2022-12-11T06:31:19.730Z,0.10
2022-12-11T06:33:47.205Z,0.10
2022-12-11T06:36:19.863Z,0.10
2022-12-11T06:38:47.713Z,0.10
2022-12-11T06:41:14.981Z,0.20
2022-12-11T06:43:45.505Z,0.10
2022-12-11T06:46:15.022Z,0.20
2022-12-11T06:48:43.187Z,0.20
2022-12-11T06:51:12.943Z,0.20
2022-12-11T06:53:40.733Z,0.20
2022-12-11T06:56:13.979Z,0.10
2022-12-11T06:58:42.187Z,0.20
2022-12-11T07:01:27.251Z,0.10
2022-12-11T07:03:59.357Z,0.10
2022-12-11T07:06:28.477Z,0.20
2022-12-11T07:08:55.437Z,0.20
2022-12-11T07:11:22.509Z,0.20
2022-12-11T07:13:49.742Z,0.10
2022-12-11T07:16:17.803Z,0.10
2022-12-11T07:18:48.824Z,0.10
2022-12-11T07:21:15.890Z,0.10
2022-12-11T07:23:42.789Z,0.10
2022-12-11T07:26:13.369Z,0.10
2022-12-11T07:28:40.871Z,0.10
2022-12-11T07:31:09.679Z,0.10
2022-12-11T07:33:36.540Z,0.20
2022-12-11T07:36:05.593Z,0.20
2022-12-11T07:38:32.990Z,0.20
2022-12-11T07:41:05.393Z,0.20
2022-12-11T07:43:36.165Z,0.20
2022-12-11T07:46:12.122Z,0.20
2022-12-11T07:48:40.925Z,0.20
2022-12-11T07:51:08.980Z,0.20
2022-12-11T07:53:35.988Z,0.20
2022-12-11T07:56:03.170Z,0.20
2022-12-11T07:58:30.006Z,0.20
2022-12-11T08:00:58.110Z,0.20
2022-12-11T08:03:25.288Z,0.20
2022-12-11T08:05:52.863Z,0.30
2022-12-11T08:08:20.296Z,0.30
2022-12-11T08:10:47.198Z,0.30
2022-12-11T08:13:14.458Z,0.20
2022-12-11T08:15:41.769Z,0.30
2022-12-11T08:18:08.547Z,0.30
2022-12-11T08:20:38.543Z,0.30
2022-12-11T08:23:05.692Z,0.30
2022-12-11T08:25:32.914Z,0.30
2022-12-11T08:27:59.764Z,0.30
2022-12-11T08:30:26.747Z,0.30
2022-12-11T08:32:53.666Z,0.30
2022-12-11T08:35:20.482Z,0.30
2022-12-11T08:37:47.473Z,0.30
2022-12-11T08:40:14.300Z,0.30
2022-12-11T08:42:41.194Z,0.30
2022-12-11T08:45:08.615Z,0.30
2022-12-11T08:47:35.814Z,0.30
2022-12-11T08:50:03.653Z,0.30
2022-12-11T08:52:31.543Z,0.30
2022-12-11T08:54:58.544Z,0.30
2022-12-11T08:57:25.394Z,0.30
2022-12-11T08:59:52.200Z,0.30
2022-12-11T09:02:19.175Z,0.40
2022-12-11T09:04:46.068Z,0.30
2022-12-11T09:07:12.903Z,0.30
2022-12-11T09:09:39.771Z,0.30
2022-12-11T09:12:07.003Z,0.40
2022-12-11T09:14:34.017Z,0.40
2022-12-11T09:17:00.948Z,0.40
2022-12-11T09:19:32.019Z,0.40
2022-12-11T09:21:59.322Z,0.40
2022-12-11T09:24:26.126Z,0.40
2022-12-11T09:26:54.530Z,0.40
2022-12-11T09:29:23.742Z,0.40
2022-12-11T09:31:50.522Z,0.40
2022-12-11T09:34:17.373Z,0.40
2022-12-11T09:36:44.418Z,0.50
2022-12-11T09:39:13.015Z,0.50
2022-12-11T09:42:07.465Z,0.40
2022-12-11T09:44:51.510Z,0.40
2022-12-11T09:47:23.742Z,0.40
2022-12-11T09:50:02.598Z,0.40
2022-12-11T09:52:37.941Z,0.50
2022-12-11T09:55:19.516Z,0.50
2022-12-11T09:58:03.638Z,0.60
2022-12-11T10:00:37.214Z,0.60
2022-12-11T10:03:34.876Z,0.60
2022-12-11T10:06:16.709Z,0.60
2022-12-11T10:09:14.306Z,0.60
2022-12-11T10:11:41.128Z,0.60
2022-12-11T10:14:18.630Z,0.60
2022-12-11T10:16:50.165Z,0.60
2022-12-11T10:19:24.848Z,0.60
2022-12-11T10:21:53.130Z,0.60
2022-12-11T10:25:09.300Z,0.60
2022-12-11T10:27:26.703Z,0.60
2022-12-11T10:30:01.471Z,0.70
2022-12-11T10:32:46.209Z,0.60
2022-12-11T10:35:20.720Z,0.60
2022-12-11T10:37:47.504Z,0.60
2022-12-11T10:40:14.653Z,0.60
2022-12-11T10:42:52.335Z,0.70
2022-12-11T10:45:19.486Z,0.60
2022-12-11T10:47:46.358Z,0.70
2022-12-11T10:50:26.183Z,0.70
2022-12-11T10:52:53.594Z,0.70
2022-12-11T10:55:38.924Z,0.70
2022-12-11T10:58:06.711Z,0.70
2022-12-11T11:00:41.241Z,0.70
2022-12-11T11:03:25.825Z,0.70
2022-12-11T11:06:02.706Z,0.70
2022-12-11T11:08:44.551Z,0.70
2022-12-11T11:11:36.906Z,0.80
2022-12-11T11:14:19.464Z,0.80
2022-12-11T11:16:48.974Z,0.80
2022-12-11T11:19:21.634Z,0.80
2022-12-11T11:21:51.366Z,0.80
2022-12-11T11:25:00.607Z,0.80
2022-12-11T11:27:43.977Z,0.80
2022-12-11T11:30:38.518Z,0.80
2022-12-11T11:33:17.589Z,0.80
2022-12-11T11:36:04.566Z,0.80
2022-12-11T11:38:46.657Z,0.80
2022-12-11T11:41:54.713Z,0.80
2022-12-11T11:44:33.350Z,0.80
2022-12-11T11:47:14.203Z,0.80
2022-12-11T11:50:04.360Z,0.80
2022-12-11T11:52:42.009Z,0.80
2022-12-11T11:55:22.488Z,0.80
2022-12-11T11:58:02.800Z,0.80
2022-12-11T12:00:33.896Z,0.80
2022-12-11T12:03:19.062Z,0.80
2022-12-11T12:06:02.320Z,0.80
2022-12-11T12:08:38.402Z,0.90
2022-12-11T12:11:10.966Z,0.90
2022-12-11T12:13:50.469Z,0.80
2022-12-11T12:16:52.782Z,0.90
2022-12-11T12:19:28.902Z,0.80
2022-12-11T12:22:19.312Z,0.80
2022-12-11T12:25:23.640Z,0.80
2022-12-11T12:28:10.669Z,0.80
2022-12-11T12:30:57.299Z,0.80
2022-12-11T12:33:55.777Z,0.90
2022-12-11T12:36:41.044Z,0.80
2022-12-11T12:39:48.372Z,0.80
2022-12-11T12:42:48.641Z,0.80
2022-12-11T12:45:15.513Z,0.80
2022-12-11T12:47:46.734Z,0.80
2022-12-11T12:50:20.638Z,0.80
2022-12-11T12:52:48.818Z,0.80
2022-12-11T12:55:31.882Z,0.80
2022-12-11T12:58:01.802Z,0.80
2022-12-11T13:00:38.885Z,0.80
2022-12-11T13:03:17.116Z,0.90
2022-12-11T13:05:55.565Z,0.90
2022-12-11T13:08:28.468Z,0.90
2022-12-11T13:11:05.373Z,0.90
2022-12-11T13:13:48.978Z,0.90
2022-12-11T13:16:18.467Z,0.80
2022-12-11T13:18:48.166Z,0.80
2022-12-11T13:21:35.060Z,0.90
2022-12-11T13:24:21.680Z,0.80
2022-12-11T13:26:50.116Z,0.90
2022-12-11T13:29:35.283Z,0.80
2022-12-11T13:32:23.290Z,0.90
2022-12-11T13:34:56.901Z,0.90
2022-12-11T13:37:33.161Z,0.80
2022-12-11T13:40:03.439Z,0.80
2022-12-11T13:42:39.321Z,0.80
2022-12-11T13:45:07.467Z,0.80
2022-12-11T13:47:36.586Z,0.80
2022-12-11T13:50:23.941Z,0.80
2022-12-11T13:52:59.155Z,0.80
2022-12-11T13:55:32.327Z,0.80
2022-12-11T13:58:00.009Z,0.80
2022-12-11T14:00:32.956Z,0.80
2022-12-11T14:03:05.153Z,0.80
2022-12-11T14:05:33.329Z,0.80
2022-12-11T14:08:05.476Z,0.80
2022-12-11T14:10:33.144Z,0.80
2022-12-11T14:13:02.440Z,0.80
2022-12-11T14:15:31.340Z,0.80
2022-12-11T14:17:59.734Z,0.80
2022-12-11T14:20:32.545Z,0.80
2022-12-11T14:23:32.659Z,0.80
2022-12-11T14:26:03.361Z,0.80
2022-12-11T14:28:37.507Z,0.80
2022-12-11T14:31:08.400Z,0.80
2022-12-11T14:33:42.111Z,0.80
2022-12-11T14:36:10.007Z,0.80
2022-12-11T14:39:08.347Z,0.80
2022-12-11T14:41:59.933Z,0.80
2022-12-11T14:44:30.511Z,0.80
2022-12-11T14:47:02.540Z,0.80
2022-12-11T14:50:10.921Z,0.80
2022-12-11T14:52:43.202Z,0.80
2022-12-11T14:55:17.374Z,0.80
2022-12-11T14:57:50.853Z,0.80
2022-12-11T15:00:31.967Z,0.80
2022-12-11T15:03:05.062Z,0.70
2022-12-11T15:05:38.856Z,0.70
2022-12-11T15:08:10.568Z,0.70
2022-12-11T15:11:07.582Z,0.70
2022-12-11T15:13:37.270Z,0.70
2022-12-11T15:16:07.529Z,0.70
2022-12-11T15:18:38.451Z,0.70
2022-12-11T15:21:09.548Z,0.70
2022-12-11T15:23:52.705Z,0.70
2022-12-11T15:26:21.589Z,0.70
2022-12-11T15:28:59.095Z,0.70
2022-12-11T15:31:28.565Z,0.70
2022-12-11T15:33:55.959Z,0.70
2022-12-11T15:36:30.193Z,0.70
2022-12-11T15:38:57.296Z,0.70
2022-12-11T15:41:25.093Z,0.70
2022-12-11T15:43:59.075Z,0.70
2022-12-11T15:46:26.335Z,0.70
2022-12-11T15:48:53.655Z,0.70
2022-12-11T15:51:20.441Z,0.70
2022-12-11T15:53:47.244Z,0.70
2022-12-11T15:56:15.460Z,0.70
2022-12-11T15:58:44.723Z,0.60
2022-12-11T16:01:12.195Z,0.60
2022-12-11T16:03:39.145Z,0.60
2022-12-11T16:06:06.255Z,0.70
2022-12-11T16:08:33.139Z,0.60
2022-12-11T16:11:00.080Z,0.60
2022-12-11T16:13:26.946Z,0.60
2022-12-11T16:15:54.336Z,0.60
2022-12-11T16:18:23.681Z,0.60
2022-12-11T16:20:51.681Z,0.60
2022-12-11T16:23:19.246Z,0.60
2022-12-11T16:25:47.183Z,0.60
2022-12-11T16:28:17.015Z,0.60
2022-12-11T16:30:44.918Z,0.60
2022-12-11T16:33:13.634Z,0.60
2022-12-11T16:35:42.695Z,0.60
2022-12-11T16:38:10.613Z,0.60
2022-12-11T16:40:38.324Z,0.60
2022-12-11T16:43:05.802Z,0.60
2022-12-11T16:45:33.214Z,0.70
2022-12-11T16:48:04.283Z,0.60
2022-12-11T16:50:32.337Z,0.60
2022-12-11T16:52:59.357Z,0.70
2022-12-11T16:55:26.469Z,0.70
2022-12-11T16:57:53.269Z,0.60
2022-12-11T17:00:20.577Z,0.60
2022-12-11T17:02:47.474Z,0.60
2022-12-11T17:05:14.587Z,0.60
2022-12-11T17:07:41.673Z,0.60
2022-12-11T17:10:09.037Z,0.70
2022-12-11T17:12:36.147Z,0.60
2022-12-11T17:15:03.650Z,0.60
2022-12-11T17:17:30.753Z,0.70
2022-12-11T17:19:57.683Z,0.60
2022-12-11T17:22:25.219Z,0.70
2022-12-11T17:24:52.096Z,0.60
2022-12-11T17:27:19.029Z,0.60
2022-12-11T17:29:47.311Z,0.60
2022-12-11T17:32:14.181Z,0.60
2022-12-11T17:34:41.164Z,0.70
2022-12-11T17:37:07.978Z,0.60
2022-12-11T17:39:34.920Z,0.60
2022-12-11T17:42:01.758Z,0.60
2022-12-11T17:44:30.896Z,0.60
2022-12-11T17:46:58.974Z,0.60
2022-12-11T17:49:26.255Z,0.60
2022-12-11T17:51:55.252Z,0.60
2022-12-11T17:54:23.144Z,0.60
2022-12-11T17:56:50.691Z,0.60
2022-12-11T17:59:17.687Z,0.60
2022-12-11T18:01:44.603Z,0.60
2022-12-11T18:04:11.567Z,0.60
2022-12-11T18:06:38.536Z,0.60
2022-12-11T18:09:05.384Z,0.60
2022-12-11T18:11:32.251Z,0.60
2022-12-11T18:13:59.447Z,0.60
2022-12-11T18:16:33.671Z,0.60
2022-12-11T18:19:00.405Z,0.50
2022-12-11T18:21:31.721Z,0.60
2022-12-11T18:23:59.774Z,0.60
2022-12-11T18:26:27.346Z,0.60
2022-12-11T18:28:54.531Z,0.60
2022-12-11T18:31:23.196Z,0.60
2022-12-11T18:33:50.687Z,0.50
2022-12-11T18:36:19.417Z,0.60
2022-12-11T18:38:47.943Z,0.60
2022-12-11T18:41:16.747Z,0.60
2022-12-11T18:43:44.175Z,0.50
2022-12-11T18:46:14.314Z,0.50
2022-12-11T18:48:42.240Z,0.50
2022-12-11T18:51:12.189Z,0.50
2022-12-11T18:53:39.547Z,0.60
2022-12-11T18:56:16.030Z,0.60
2022-12-11T18:58:43.178Z,0.50
2022-12-11T19:01:13.854Z,0.50
2022-12-11T19:03:41.256Z,0.50
2022-12-11T19:06:15.087Z,0.50
2022-12-11T19:08:42.243Z,0.50
2022-12-11T19:11:13.403Z,0.50
2022-12-11T19:13:40.221Z,0.50
2022-12-11T19:16:07.379Z,0.50
2022-12-11T19:18:34.206Z,0.50
2022-12-11T19:21:08.457Z,0.50
2022-12-11T19:23:36.251Z,0.50
2022-12-11T19:26:03.638Z,0.50
2022-12-11T19:28:30.979Z,0.50
2022-12-11T19:30:57.922Z,0.50
2022-12-11T19:33:24.863Z,0.50
2022-12-11T19:36:01.703Z,0.50
2022-12-11T19:38:28.576Z,0.50
2022-12-11T19:40:55.394Z,0.50
2022-12-11T19:43:22.148Z,0.50
2022-12-11T19:45:49.498Z,0.50
2022-12-11T19:48:16.431Z,0.50
2022-12-11T19:50:43.343Z,0.50
2022-12-11T19:53:10.160Z,0.50
2022-12-11T19:55:36.986Z,0.50
2022-12-11T19:58:03.855Z,0.50
2022-12-11T20:00:30.868Z,0.50
2022-12-11T20:02:57.915Z,0.50
2022-12-11T20:05:24.709Z,0.50
2022-12-11T20:07:52.428Z,0.50
2022-12-11T20:10:19.342Z,0.50
2022-12-11T20:12:46.429Z,0.50
2022-12-11T20:15:13.812Z,0.50
2022-12-11T20:17:44.859Z,0.50
2022-12-11T20:20:11.891Z,0.50
2022-12-11T20:22:39.730Z,0.50
2022-12-11T20:25:07.444Z,0.50
2022-12-11T20:27:34.891Z,0.40
2022-12-11T20:30:03.552Z,0.50
2022-12-11T20:32:30.368Z,0.50
2022-12-11T20:34:57.964Z,0.50
2022-12-11T20:37:26.029Z,0.50
2022-12-11T20:39:52.889Z,0.50
2022-12-11T20:42:19.724Z,0.50
2022-12-11T20:44:49.150Z,0.40
2022-12-11T20:47:19.642Z,0.50
2022-12-11T20:49:50.283Z,0.50
2022-12-11T20:52:18.391Z,0.50
2022-12-11T20:54:45.591Z,0.50
2022-12-11T20:57:13.869Z,0.50
2022-12-11T20:59:40.918Z,0.40
2022-12-11T21:02:09.520Z,0.40
2022-12-11T21:04:41.090Z,0.50
2022-12-11T21:07:11.494Z,0.50
2022-12-11T21:09:39.224Z,0.40
2022-12-11T21:12:06.782Z,0.40
2022-12-11T21:14:34.555Z,0.40
2022-12-11T21:17:01.521Z,0.50
2022-12-11T21:19:28.446Z,0.50
2022-12-11T21:21:56.312Z,0.40
2022-12-11T21:24:26.506Z,0.40
2022-12-11T21:26:57.659Z,0.40
2022-12-11T21:29:26.794Z,0.40
2022-12-11T21:31:54.167Z,0.40
2022-12-11T21:34:25.297Z,0.40
2022-12-11T21:36:57.183Z,0.40
2022-12-11T21:39:25.642Z,0.40
2022-12-11T21:41:52.583Z,0.40
2022-12-11T21:47:06.388Z,0.40
2022-12-11T21:49:33.224Z,0.40
2022-12-11T21:52:00.398Z,0.40
2022-12-11T21:54:27.320Z,0.40
2022-12-11T21:56:54.631Z,0.40
2022-12-11T21:59:21.442Z,0.40
2022-12-11T22:01:48.304Z,0.40
2022-12-11T22:04:15.992Z,0.40
2022-12-11T22:06:43.583Z,0.40
2022-12-11T22:09:12.920Z,0.40
2022-12-11T22:11:40.795Z,0.40
2022-12-11T22:14:08.402Z,0.40
2022-12-11T22:16:35.619Z,0.40
2022-12-11T22:19:02.485Z,0.40
2022-12-11T22:21:29.598Z,0.40
2022-12-11T22:23:56.666Z,0.40
2022-12-11T22:26:25.738Z,0.40
2022-12-11T22:28:52.755Z,0.40
2022-12-11T22:31:22.166Z,0.40
2022-12-11T22:33:50.069Z,0.40
2022-12-11T22:36:20.174Z,0.40
2022-12-11T22:38:47.577Z,0.40
2022-12-11T22:41:26.298Z,0.40
2022-12-11T22:43:53.609Z,0.40
2022-12-11T22:46:23.410Z,0.40
2022-12-11T22:48:50.358Z,0.40
2022-12-11T22:51:17.491Z,0.40
2022-12-11T22:53:44.386Z,0.40
2022-12-11T22:56:12.699Z,0.40
2022-12-11T22:58:40.028Z,0.40
2022-12-11T23:01:16.042Z,0.40
2022-12-11T23:03:43.215Z,0.40
2022-12-11T23:06:12.844Z,0.40
2022-12-11T23:08:40.722Z,0.40
2022-12-11T23:11:17.584Z,0.40
2022-12-11T23:13:44.506Z,0.40
2022-12-11T23:16:12.579Z,0.40
2022-12-11T23:18:40.103Z,0.40
2022-12-11T23:21:07.627Z,0.40
2022-12-11T23:47:57.153Z,0.40
2022-12-11T23:50:23.980Z,0.40
2022-12-11T23:52:50.804Z,0.40
2022-12-11T23:55:17.699Z,0.40
2022-12-11T23:57:44.491Z,0.40
